Terminal Aerodrome Forecast
Issued by NWS

Home | Current Version | Previous Version | Text Only | Print | Product List | Glossary On
Versions: 1 2 3 4 5 6 7 8 9 10 11 12 13 14 15 16 17 18 19
000
FTUS46 KSEW 250900 AAA
TAFBFI
TAF AMD
KBFI 250905Z 2509/2606 00000KT P6SM OVC050
     FM251200 00000KT P6SM BKN030 OVC050
     FM251400 VRB03KT P6SM OVC020
     FM251800 31003KT P6SM BKN050
     FM252100 30005KT P6SM SCT250=

USA.gov is the U.S. government's official web portal to all federal, state and local government web resources and services.